sensor_id;sensor_type;location;lat;lon;timestamp;P1;durP1;ratioP1;P2;durP2;ratioP2
15183;SDS011;7693;49.266;7.104;2023-04-06T04:11:34;16.70;;;13.87;;
15183;SDS011;7693;49.266;7.104;2023-04-06T04:13:59;15.57;;;12.60;;
15183;SDS011;7693;49.266;7.104;2023-04-06T04:16:25;17.77;;;15.40;;
15183;SDS011;7693;49.266;7.104;2023-04-06T04:18:51;19.40;;;16.13;;
15183;SDS011;7693;49.266;7.104;2023-04-06T04:21:16;16.50;;;14.73;;
15183;SDS011;7693;49.266;7.104;2023-04-06T04:23:42;22.13;;;16.13;;
15183;SDS011;7693;49.266;7.104;2023-04-06T04:26:07;17.30;;;13.83;;
15183;SDS011;7693;49.266;7.104;2023-04-06T04:28:33;20.57;;;15.17;;
15183;SDS011;7693;49.266;7.104;2023-04-06T04:30:59;16.90;;;14.03;;
15183;SDS011;7693;49.266;7.104;2023-04-06T04:33:24;16.03;;;13.03;;
15183;SDS011;7693;49.266;7.104;2023-04-06T04:35:50;17.63;;;12.70;;
15183;SDS011;7693;49.266;7.104;2023-04-06T04:38:16;15.17;;;11.90;;
15183;SDS011;7693;49.266;7.104;2023-04-06T04:40:41;19.33;;;12.70;;
15183;SDS011;7693;49.266;7.104;2023-04-06T04:43:07;17.80;;;12.47;;
15183;SDS011;7693;49.266;7.104;2023-04-06T04:45:33;17.00;;;12.60;;
15183;SDS011;7693;49.266;7.104;2023-04-06T04:47:58;20.43;;;14.10;;
15183;SDS011;7693;49.266;7.104;2023-04-06T04:50:24;17.00;;;14.40;;
15183;SDS011;7693;49.266;7.104;2023-04-06T04:52:50;16.70;;;13.63;;
15183;SDS011;7693;49.266;7.104;2023-04-06T04:55:15;18.77;;;14.20;;
15183;SDS011;7693;49.266;7.104;2023-04-06T04:57:42;14.70;;;13.07;;
15183;SDS011;7693;49.266;7.104;2023-04-06T05:00:08;18.47;;;13.37;;
15183;SDS011;7693;49.266;7.104;2023-04-06T05:02:34;17.77;;;13.10;;
15183;SDS011;7693;49.266;7.104;2023-04-06T05:05:00;15.87;;;12.53;;
15183;SDS011;7693;49.266;7.104;2023-04-06T05:07:26;17.73;;;12.80;;
15183;SDS011;7693;49.266;7.104;2023-04-06T05:09:51;14.80;;;12.13;;
15183;SDS011;7693;49.266;7.104;2023-04-06T05:12:18;17.50;;;13.33;;
15183;SDS011;7693;49.266;7.104;2023-04-06T05:14:44;16.43;;;12.17;;
15183;SDS011;7693;49.266;7.104;2023-04-06T05:17:10;19.00;;;12.63;;
15183;SDS011;7693;49.266;7.104;2023-04-06T05:19:36;16.23;;;11.40;;
15183;SDS011;7693;49.266;7.104;2023-04-06T05:22:01;14.00;;;12.60;;
15183;SDS011;7693;49.266;7.104;2023-04-06T05:24:27;14.87;;;12.43;;
15183;SDS011;7693;49.266;7.104;2023-04-06T05:26:53;16.20;;;12.70;;
15183;SDS011;7693;49.266;7.104;2023-04-06T05:29:19;16.33;;;12.03;;
15183;SDS011;7693;49.266;7.104;2023-04-06T05:31:45;14.67;;;11.97;;
15183;SDS011;7693;49.266;7.104;2023-04-06T05:34:11;13.37;;;11.07;;
15183;SDS011;7693;49.266;7.104;2023-04-06T05:36:37;15.03;;;11.73;;
15183;SDS011;7693;49.266;7.104;2023-04-06T05:39:03;13.00;;;10.70;;
15183;SDS011;7693;49.266;7.104;2023-04-06T05:41:29;13.33;;;10.73;;
15183;SDS011;7693;49.266;7.104;2023-04-06T05:43:55;11.93;;;10.57;;
15183;SDS011;7693;49.266;7.104;2023-04-06T05:46:20;14.87;;;9.63;;
15183;SDS011;7693;49.266;7.104;2023-04-06T05:48:46;11.07;;;9.43;;
15183;SDS011;7693;49.266;7.104;2023-04-06T05:51:11;12.27;;;10.10;;
15183;SDS011;7693;49.266;7.104;2023-04-06T05:53:37;11.87;;;10.73;;
15183;SDS011;7693;49.266;7.104;2023-04-06T05:56:03;16.57;;;10.53;;
15183;SDS011;7693;49.266;7.104;2023-04-06T05:58:29;14.67;;;11.40;;
15183;SDS011;7693;49.266;7.104;2023-04-06T06:00:58;14.43;;;10.03;;
15183;SDS011;7693;49.266;7.104;2023-04-06T06:03:24;16.10;;;10.77;;
15183;SDS011;7693;49.266;7.104;2023-04-06T06:05:50;13.57;;;10.60;;
15183;SDS011;7693;49.266;7.104;2023-04-06T06:08:16;11.67;;;10.43;;
15183;SDS011;7693;49.266;7.104;2023-04-06T06:10:42;14.03;;;11.10;;
15183;SDS011;7693;49.266;7.104;2023-04-06T06:13:08;17.80;;;12.23;;
15183;SDS011;7693;49.266;7.104;2023-04-06T06:15:33;17.90;;;10.90;;
15183;SDS011;7693;49.266;7.104;2023-04-06T06:17:59;15.13;;;11.67;;
15183;SDS011;7693;49.266;7.104;2023-04-06T06:20:25;18.10;;;12.10;;
15183;SDS011;7693;49.266;7.104;2023-04-06T06:22:51;18.70;;;11.47;;
15183;SDS011;7693;49.266;7.104;2023-04-06T06:25:17;15.13;;;11.53;;
15183;SDS011;7693;49.266;7.104;2023-04-06T06:27:43;16.07;;;11.53;;
15183;SDS011;7693;49.266;7.104;2023-04-06T06:30:08;15.83;;;10.83;;
15183;SDS011;7693;49.266;7.104;2023-04-06T06:32:34;15.27;;;11.07;;
15183;SDS011;7693;49.266;7.104;2023-04-06T06:35:00;15.77;;;11.20;;
15183;SDS011;7693;49.266;7.104;2023-04-06T06:37:26;14.40;;;11.07;;
15183;SDS011;7693;49.266;7.104;2023-04-06T06:39:52;16.60;;;11.47;;
15183;SDS011;7693;49.266;7.104;2023-04-06T06:42:17;12.93;;;11.03;;
15183;SDS011;7693;49.266;7.104;2023-04-06T06:44:46;19.03;;;13.03;;
15183;SDS011;7693;49.266;7.104;2023-04-06T06:47:11;15.87;;;11.90;;
15183;SDS011;7693;49.266;7.104;2023-04-06T06:49:37;14.17;;;11.27;;
15183;SDS011;7693;49.266;7.104;2023-04-06T06:52:03;16.63;;;11.67;;
15183;SDS011;7693;49.266;7.104;2023-04-06T06:54:29;15.43;;;12.10;;
15183;SDS011;7693;49.266;7.104;2023-04-06T06:56:54;13.30;;;10.77;;
15183;SDS011;7693;49.266;7.104;2023-04-06T06:59:20;12.73;;;10.87;;
15183;SDS011;7693;49.266;7.104;2023-04-06T07:01:46;12.67;;;10.93;;
15183;SDS011;7693;49.266;7.104;2023-04-06T07:04:11;24.03;;;11.93;;
15183;SDS011;7693;49.266;7.104;2023-04-06T07:06:37;12.40;;;10.67;;
15183;SDS011;7693;49.266;7.104;2023-04-06T07:09:03;17.97;;;13.47;;
15183;SDS011;7693;49.266;7.104;2023-04-06T07:11:29;16.97;;;11.83;;
15183;SDS011;7693;49.266;7.104;2023-04-06T07:13:55;18.77;;;12.03;;
15183;SDS011;7693;49.266;7.104;2023-04-06T07:16:21;13.10;;;11.70;;
15183;SDS011;7693;49.266;7.104;2023-04-06T07:18:46;19.50;;;14.10;;
15183;SDS011;7693;49.266;7.104;2023-04-06T07:21:12;13.67;;;12.23;;
15183;SDS011;7693;49.266;7.104;2023-04-06T07:23:38;17.07;;;12.17;;
15183;SDS011;7693;49.266;7.104;2023-04-06T07:26:04;25.57;;;17.43;;
15183;SDS011;7693;49.266;7.104;2023-04-06T07:28:29;33.90;;;20.90;;
15183;SDS011;7693;49.266;7.104;2023-04-06T07:30:55;15.03;;;11.87;;
15183;SDS011;7693;49.266;7.104;2023-04-06T07:33:21;13.03;;;10.53;;
15183;SDS011;7693;49.266;7.104;2023-04-06T07:35:47;22.63;;;14.53;;
15183;SDS011;7693;49.266;7.104;2023-04-06T07:38:12;15.20;;;11.93;;
15183;SDS011;7693;49.266;7.104;2023-04-06T07:40:38;14.97;;;12.43;;
15183;SDS011;7693;49.266;7.104;2023-04-06T07:43:04;18.40;;;13.10;;
15183;SDS011;7693;49.266;7.104;2023-04-06T07:45:30;18.40;;;12.77;;
15183;SDS011;7693;49.266;7.104;2023-04-06T07:47:55;16.63;;;10.37;;
15183;SDS011;7693;49.266;7.104;2023-04-06T07:50:21;13.10;;;10.60;;
15183;SDS011;7693;49.266;7.104;2023-04-06T07:52:47;13.30;;;11.10;;
15183;SDS011;7693;49.266;7.104;2023-04-06T07:55:12;13.37;;;10.20;;
15183;SDS011;7693;49.266;7.104;2023-04-06T07:57:38;11.30;;;8.00;;
15183;SDS011;7693;49.266;7.104;2023-04-06T08:00:07;8.83;;;8.00;;
15183;SDS011;7693;49.266;7.104;2023-04-06T08:02:34;11.83;;;9.57;;
15183;SDS011;7693;49.266;7.104;2023-04-06T08:05:00;10.73;;;9.07;;
15183;SDS011;7693;49.266;7.104;2023-04-06T08:07:25;8.13;;;7.33;;
15183;SDS011;7693;49.266;7.104;2023-04-06T08:09:51;6.50;;;5.97;;
15183;SDS011;7693;49.266;7.104;2023-04-06T08:12:17;7.13;;;6.50;;
15183;SDS011;7693;49.266;7.104;2023-04-06T08:14:43;7.67;;;6.53;;
15183;SDS011;7693;49.266;7.104;2023-04-06T08:17:08;7.27;;;6.67;;
15183;SDS011;7693;49.266;7.104;2023-04-06T08:19:34;8.40;;;6.70;;
15183;SDS011;7693;49.266;7.104;2023-04-06T08:22:00;10.10;;;6.87;;
15183;SDS011;7693;49.266;7.104;2023-04-06T08:24:25;7.37;;;6.43;;
15183;SDS011;7693;49.266;7.104;2023-04-06T08:26:51;7.23;;;6.53;;
15183;SDS011;7693;49.266;7.104;2023-04-06T08:29:17;10.13;;;7.10;;
15183;SDS011;7693;49.266;7.104;2023-04-06T08:31:43;7.70;;;6.87;;
15183;SDS011;7693;49.266;7.104;2023-04-06T08:34:09;8.33;;;7.50;;
15183;SDS011;7693;49.266;7.104;2023-04-06T08:36:35;7.43;;;6.73;;
15183;SDS011;7693;49.266;7.104;2023-04-06T08:39:00;8.30;;;6.90;;
15183;SDS011;7693;49.266;7.104;2023-04-06T08:41:26;7.80;;;7.07;;
15183;SDS011;7693;49.266;7.104;2023-04-06T08:43:56;9.43;;;7.13;;
15183;SDS011;7693;49.266;7.104;2023-04-06T08:46:26;8.83;;;7.10;;
15183;SDS011;7693;49.266;7.104;2023-04-06T08:48:57;7.57;;;6.87;;
15183;SDS011;7693;49.266;7.104;2023-04-06T08:51:23;8.53;;;7.23;;
15183;SDS011;7693;49.266;7.104;2023-04-06T08:53:51;7.80;;;7.10;;
15183;SDS011;7693;49.266;7.104;2023-04-06T08:56:19;7.93;;;7.13;;
15183;SDS011;7693;49.266;7.104;2023-04-06T08:58:46;7.80;;;7.10;;
15183;SDS011;7693;49.266;7.104;2023-04-06T09:01:13;7.07;;;6.40;;
15183;SDS011;7693;49.266;7.104;2023-04-06T09:03:42;7.93;;;7.23;;
15183;SDS011;7693;49.266;7.104;2023-04-06T09:06:08;8.73;;;7.97;;
15183;SDS011;7693;49.266;7.104;2023-04-06T09:08:35;6.77;;;6.17;;
15183;SDS011;7693;49.266;7.104;2023-04-06T09:11:03;7.97;;;7.17;;
15183;SDS011;7693;49.266;7.104;2023-04-06T09:13:29;7.90;;;7.10;;
15183;SDS011;7693;49.266;7.104;2023-04-06T09:16:01;7.87;;;7.07;;
15183;SDS011;7693;49.266;7.104;2023-04-06T09:18:29;8.27;;;7.37;;
15183;SDS011;7693;49.266;7.104;2023-04-06T09:20:57;7.20;;;6.50;;
15183;SDS011;7693;49.266;7.104;2023-04-06T09:23:27;10.47;;;6.93;;
15183;SDS011;7693;49.266;7.104;2023-04-06T09:26:04;10.40;;;7.90;;
15183;SDS011;7693;49.266;7.104;2023-04-06T09:28:40;7.67;;;7.07;;
15183;SDS011;7693;49.266;7.104;2023-04-06T09:31:13;7.57;;;6.93;;
15183;SDS011;7693;49.266;7.104;2023-04-06T09:33:44;7.83;;;7.07;;
15183;SDS011;7693;49.266;7.104;2023-04-06T09:36:10;7.50;;;6.80;;
15183;SDS011;7693;49.266;7.104;2023-04-06T09:38:50;6.63;;;6.13;;
15183;SDS011;7693;49.266;7.104;2023-04-06T12:10:36;8.23;;;6.60;;
15183;SDS011;7693;49.266;7.104;2023-04-06T12:13:02;7.20;;;6.23;;
15183;SDS011;7693;49.266;7.104;2023-04-06T12:15:28;7.57;;;6.73;;
15183;SDS011;7693;49.266;7.104;2023-04-06T12:17:54;7.17;;;6.47;;
15183;SDS011;7693;49.266;7.104;2023-04-06T12:20:19;7.07;;;6.17;;
15183;SDS011;7693;49.266;7.104;2023-04-06T12:22:45;7.17;;;6.47;;
15183;SDS011;7693;49.266;7.104;2023-04-06T12:25:11;7.93;;;6.50;;
15183;SDS011;7693;49.266;7.104;2023-04-06T12:27:39;8.13;;;6.33;;
15183;SDS011;7693;49.266;7.104;2023-04-06T12:30:05;7.97;;;7.20;;
15183;SDS011;7693;49.266;7.104;2023-04-06T12:32:31;8.60;;;6.87;;
15183;SDS011;7693;49.266;7.104;2023-04-06T12:34:57;7.50;;;6.80;;
15183;SDS011;7693;49.266;7.104;2023-04-06T12:37:22;7.07;;;6.47;;
15183;SDS011;7693;49.266;7.104;2023-04-06T12:39:48;7.67;;;7.00;;
15183;SDS011;7693;49.266;7.104;2023-04-06T12:42:14;7.90;;;7.10;;
15183;SDS011;7693;49.266;7.104;2023-04-06T12:44:39;6.63;;;5.90;;
15183;SDS011;7693;49.266;7.104;2023-04-06T12:47:07;7.30;;;6.60;;
15183;SDS011;7693;49.266;7.104;2023-04-06T12:49:33;10.07;;;6.93;;
15183;SDS011;7693;49.266;7.104;2023-04-06T12:51:58;7.60;;;5.83;;
15183;SDS011;7693;49.266;7.104;2023-04-06T12:54:24;8.33;;;6.70;;
15183;SDS011;7693;49.266;7.104;2023-04-06T12:56:51;7.37;;;6.73;;
15183;SDS011;7693;49.266;7.104;2023-04-06T12:59:17;7.17;;;6.57;;
15183;SDS011;7693;49.266;7.104;2023-04-06T13:01:42;7.27;;;6.53;;
15183;SDS011;7693;49.266;7.104;2023-04-06T13:04:09;8.63;;;7.40;;
15183;SDS011;7693;49.266;7.104;2023-04-06T13:06:34;7.80;;;6.23;;
15183;SDS011;7693;49.266;7.104;2023-04-06T13:09:00;8.93;;;6.93;;
15183;SDS011;7693;49.266;7.104;2023-04-06T13:11:26;8.00;;;6.60;;
15183;SDS011;7693;49.266;7.104;2023-04-06T13:13:51;6.80;;;5.77;;
15183;SDS011;7693;49.266;7.104;2023-04-06T13:16:17;7.30;;;6.60;;
15183;SDS011;7693;49.266;7.104;2023-04-06T13:18:42;7.60;;;6.90;;
15183;SDS011;7693;49.266;7.104;2023-04-06T13:21:08;7.10;;;6.30;;
15183;SDS011;7693;49.266;7.104;2023-04-06T13:23:38;7.97;;;7.17;;
15183;SDS011;7693;49.266;7.104;2023-04-06T13:26:05;6.87;;;6.17;;
15183;SDS011;7693;49.266;7.104;2023-04-06T13:28:33;7.37;;;6.03;;
15183;SDS011;7693;49.266;7.104;2023-04-06T13:30:59;7.93;;;6.60;;
15183;SDS011;7693;49.266;7.104;2023-04-06T13:33:26;7.97;;;6.50;;
15183;SDS011;7693;49.266;7.104;2023-04-06T13:35:52;9.60;;;8.20;;
15183;SDS011;7693;49.266;7.104;2023-04-06T13:38:18;7.60;;;6.80;;
15183;SDS011;7693;49.266;7.104;2023-04-06T13:40:44;6.50;;;5.87;;
15183;SDS011;7693;49.266;7.104;2023-04-06T13:43:10;7.20;;;6.50;;
15183;SDS011;7693;49.266;7.104;2023-04-06T13:45:36;7.63;;;6.97;;
15183;SDS011;7693;49.266;7.104;2023-04-06T13:48:02;7.20;;;6.50;;
15183;SDS011;7693;49.266;7.104;2023-04-06T13:50:28;6.43;;;5.60;;
15183;SDS011;7693;49.266;7.104;2023-04-06T13:52:54;7.90;;;6.63;;
15183;SDS011;7693;49.266;7.104;2023-04-06T13:55:20;7.83;;;6.83;;
15183;SDS011;7693;49.266;7.104;2023-04-06T13:57:46;11.80;;;7.00;;
15183;SDS011;7693;49.266;7.104;2023-04-06T14:00:12;7.43;;;6.73;;
15183;SDS011;7693;49.266;7.104;2023-04-06T14:02:39;7.70;;;7.00;;
15183;SDS011;7693;49.266;7.104;2023-04-06T14:05:05;8.07;;;7.30;;
15183;SDS011;7693;49.266;7.104;2023-04-06T14:07:31;9.13;;;7.17;;
15183;SDS011;7693;49.266;7.104;2023-04-06T14:09:57;7.13;;;6.63;;
15183;SDS011;7693;49.266;7.104;2023-04-06T14:12:22;8.20;;;7.10;;
15183;SDS011;7693;49.266;7.104;2023-04-06T14:14:48;9.07;;;7.17;;
15183;SDS011;7693;49.266;7.104;2023-04-06T14:17:13;7.10;;;5.60;;
15183;SDS011;7693;49.266;7.104;2023-04-06T14:19:39;8.03;;;6.73;;
15183;SDS011;7693;49.266;7.104;2023-04-06T14:22:05;6.40;;;5.90;;
15183;SDS011;7693;49.266;7.104;2023-04-06T14:24:30;6.37;;;5.50;;
15183;SDS011;7693;49.266;7.104;2023-04-06T14:26:56;8.63;;;6.30;;
15183;SDS011;7693;49.266;7.104;2023-04-06T14:29:22;6.93;;;6.33;;
15183;SDS011;7693;49.266;7.104;2023-04-06T14:31:48;6.63;;;6.13;;
15183;SDS011;7693;49.266;7.104;2023-04-06T14:34:14;7.03;;;6.47;;
15183;SDS011;7693;49.266;7.104;2023-04-06T14:36:41;7.20;;;6.50;;
15183;SDS011;7693;49.266;7.104;2023-04-06T14:39:07;7.07;;;6.37;;
15183;SDS011;7693;49.266;7.104;2023-04-06T14:41:33;7.40;;;6.83;;
15183;SDS011;7693;49.266;7.104;2023-04-06T14:43:59;7.63;;;6.63;;
15183;SDS011;7693;49.266;7.104;2023-04-06T14:46:25;11.47;;;8.23;;
15183;SDS011;7693;49.266;7.104;2023-04-06T14:48:55;6.70;;;6.20;;
15183;SDS011;7693;49.266;7.104;2023-04-06T14:51:21;6.80;;;6.20;;
15183;SDS011;7693;49.266;7.104;2023-04-06T14:53:49;11.20;;;7.30;;
15183;SDS011;7693;49.266;7.104;2023-04-06T14:56:18;8.77;;;5.87;;
15183;SDS011;7693;49.266;7.104;2023-04-06T14:58:46;6.97;;;6.33;;
15183;SDS011;7693;49.266;7.104;2023-04-06T15:01:11;6.23;;;5.80;;
15183;SDS011;7693;49.266;7.104;2023-04-06T15:03:37;7.40;;;6.80;;
15183;SDS011;7693;49.266;7.104;2023-04-06T15:06:03;7.83;;;6.83;;
15183;SDS011;7693;49.266;7.104;2023-04-06T15:08:28;7.30;;;6.60;;
15183;SDS011;7693;49.266;7.104;2023-04-06T15:10:58;7.10;;;6.50;;
15183;SDS011;7693;49.266;7.104;2023-04-06T15:13:24;6.93;;;6.47;;
15183;SDS011;7693;49.266;7.104;2023-04-06T15:15:50;7.87;;;6.67;;
15183;SDS011;7693;49.266;7.104;2023-04-06T15:18:16;6.63;;;6.13;;
15183;SDS011;7693;49.266;7.104;2023-04-06T15:20:42;6.57;;;6.10;;
15183;SDS011;7693;49.266;7.104;2023-04-06T15:23:08;6.60;;;6.07;;
15183;SDS011;7693;49.266;7.104;2023-04-06T15:25:34;8.00;;;7.20;;
15183;SDS011;7693;49.266;7.104;2023-04-06T15:27:59;7.73;;;7.13;;
15183;SDS011;7693;49.266;7.104;2023-04-06T15:30:25;7.40;;;6.70;;
15183;SDS011;7693;49.266;7.104;2023-04-06T15:32:57;7.60;;;6.90;;
15183;SDS011;7693;49.266;7.104;2023-04-06T15:35:28;7.27;;;6.83;;
15183;SDS011;7693;49.266;7.104;2023-04-06T15:37:57;7.73;;;7.03;;
15183;SDS011;7693;49.266;7.104;2023-04-06T15:40:23;8.17;;;7.47;;
15183;SDS011;7693;49.266;7.104;2023-04-06T15:42:50;7.53;;;6.87;;
15183;SDS011;7693;49.266;7.104;2023-04-06T15:45:15;7.70;;;7.10;;
15183;SDS011;7693;49.266;7.104;2023-04-06T15:47:42;7.80;;;7.20;;
15183;SDS011;7693;49.266;7.104;2023-04-06T15:50:08;9.67;;;8.00;;
15183;SDS011;7693;49.266;7.104;2023-04-06T15:52:34;8.13;;;7.37;;
15183;SDS011;7693;49.266;7.104;2023-04-06T15:55:01;7.57;;;6.90;;
15183;SDS011;7693;49.266;7.104;2023-04-06T15:57:28;7.47;;;6.80;;
15183;SDS011;7693;49.266;7.104;2023-04-06T15:59:54;8.20;;;7.47;;
15183;SDS011;7693;49.266;7.104;2023-04-06T16:02:20;8.83;;;7.93;;
15183;SDS011;7693;49.266;7.104;2023-04-06T16:04:47;8.70;;;7.80;;
15183;SDS011;7693;49.266;7.104;2023-04-06T16:07:13;8.70;;;7.90;;
15183;SDS011;7693;49.266;7.104;2023-04-06T16:09:39;7.97;;;7.33;;
15183;SDS011;7693;49.266;7.104;2023-04-06T16:12:04;8.27;;;7.47;;
15183;SDS011;7693;49.266;7.104;2023-04-06T16:14:30;11.40;;;8.47;;
15183;SDS011;7693;49.266;7.104;2023-04-06T16:16:56;11.87;;;10.17;;
15183;SDS011;7693;49.266;7.104;2023-04-06T16:19:21;11.47;;;9.10;;
15183;SDS011;7693;49.266;7.104;2023-04-06T16:21:47;7.73;;;7.03;;
15183;SDS011;7693;49.266;7.104;2023-04-06T16:24:13;8.23;;;7.37;;
15183;SDS011;7693;49.266;7.104;2023-04-06T16:26:38;7.20;;;6.53;;
15183;SDS011;7693;49.266;7.104;2023-04-06T16:29:04;6.17;;;5.73;;
15183;SDS011;7693;49.266;7.104;2023-04-06T16:31:30;7.40;;;6.47;;
15183;SDS011;7693;49.266;7.104;2023-04-06T16:33:57;8.57;;;7.77;;
15183;SDS011;7693;49.266;7.104;2023-04-06T16:36:23;10.73;;;8.87;;
15183;SDS011;7693;49.266;7.104;2023-04-06T16:38:51;7.33;;;6.73;;
15183;SDS011;7693;49.266;7.104;2023-04-06T16:41:17;8.33;;;7.63;;
15183;SDS011;7693;49.266;7.104;2023-04-06T16:43:42;6.90;;;6.13;;
15183;SDS011;7693;49.266;7.104;2023-04-06T16:46:08;7.47;;;6.77;;
15183;SDS011;7693;49.266;7.104;2023-04-06T16:48:34;8.33;;;5.63;;
15183;SDS011;7693;49.266;7.104;2023-04-06T16:51:03;7.30;;;6.53;;
15183;SDS011;7693;49.266;7.104;2023-04-06T16:53:30;9.47;;;8.63;;
15183;SDS011;7693;49.266;7.104;2023-04-06T16:55:56;7.17;;;6.47;;
15183;SDS011;7693;49.266;7.104;2023-04-06T16:58:21;6.40;;;5.80;;
15183;SDS011;7693;49.266;7.104;2023-04-06T17:00:47;7.27;;;6.60;;
15183;SDS011;7693;49.266;7.104;2023-04-06T17:03:12;6.63;;;6.13;;
15183;SDS011;7693;49.266;7.104;2023-04-06T17:05:38;7.70;;;7.00;;
15183;SDS011;7693;49.266;7.104;2023-04-06T17:08:04;6.77;;;6.20;;
15183;SDS011;7693;49.266;7.104;2023-04-06T17:10:29;6.80;;;6.03;;
15183;SDS011;7693;49.266;7.104;2023-04-06T17:12:55;13.67;;;9.90;;
15183;SDS011;7693;49.266;7.104;2023-04-06T17:15:21;7.20;;;6.50;;
15183;SDS011;7693;49.266;7.104;2023-04-06T17:17:48;22.47;;;13.90;;
15183;SDS011;7693;49.266;7.104;2023-04-06T17:20:14;13.67;;;9.80;;
15183;SDS011;7693;49.266;7.104;2023-04-06T17:22:40;6.47;;;5.87;;
15183;SDS011;7693;49.266;7.104;2023-04-06T17:25:06;7.20;;;5.60;;
15183;SDS011;7693;49.266;7.104;2023-04-06T17:27:32;7.83;;;7.20;;
15183;SDS011;7693;49.266;7.104;2023-04-06T17:29:58;4.93;;;4.63;;
15183;SDS011;7693;49.266;7.104;2023-04-06T17:32:30;6.83;;;5.90;;
15183;SDS011;7693;49.266;7.104;2023-04-06T17:34:56;7.10;;;6.50;;
15183;SDS011;7693;49.266;7.104;2023-04-06T17:37:22;6.10;;;5.50;;
15183;SDS011;7693;49.266;7.104;2023-04-06T17:39:47;5.27;;;4.77;;
15183;SDS011;7693;49.266;7.104;2023-04-06T17:42:13;5.50;;;5.03;;
15183;SDS011;7693;49.266;7.104;2023-04-06T17:44:38;5.80;;;5.30;;
15183;SDS011;7693;49.266;7.104;2023-04-06T17:47:04;6.27;;;5.87;;
15183;SDS011;7693;49.266;7.104;2023-04-06T17:49:30;5.63;;;5.17;;
15183;SDS011;7693;49.266;7.104;2023-04-06T17:51:55;6.80;;;6.20;;
15183;SDS011;7693;49.266;7.104;2023-04-06T17:54:21;5.97;;;5.47;;
15183;SDS011;7693;49.266;7.104;2023-04-06T17:56:47;6.30;;;5.70;;
15183;SDS011;7693;49.266;7.104;2023-04-06T17:59:13;7.67;;;5.87;;
15183;SDS011;7693;49.266;7.104;2023-04-06T18:01:39;5.53;;;5.20;;
15183;SDS011;7693;49.266;7.104;2023-04-06T18:04:05;6.23;;;5.70;;
15183;SDS011;7693;49.266;7.104;2023-04-06T18:06:31;6.60;;;6.10;;
15183;SDS011;7693;49.266;7.104;2023-04-06T18:08:57;5.97;;;5.47;;
15183;SDS011;7693;49.266;7.104;2023-04-06T18:11:23;7.20;;;6.10;;
15183;SDS011;7693;49.266;7.104;2023-04-06T18:13:51;8.80;;;6.80;;
15183;SDS011;7693;49.266;7.104;2023-04-06T18:16:16;7.13;;;6.63;;
15183;SDS011;7693;49.266;7.104;2023-04-06T18:18:44;6.80;;;6.40;;
15183;SDS011;7693;49.266;7.104;2023-04-06T18:21:10;6.83;;;6.23;;
15183;SDS011;7693;49.266;7.104;2023-04-06T18:23:36;6.90;;;6.27;;
15183;SDS011;7693;49.266;7.104;2023-04-06T18:26:05;7.20;;;6.60;;
15183;SDS011;7693;49.266;7.104;2023-04-06T18:28:31;14.13;;;9.57;;
15183;SDS011;7693;49.266;7.104;2023-04-06T18:30:57;7.70;;;7.10;;
15183;SDS011;7693;49.266;7.104;2023-04-06T18:33:23;7.10;;;6.63;;
15183;SDS011;7693;49.266;7.104;2023-04-06T18:35:51;8.30;;;7.60;;
15183;SDS011;7693;49.266;7.104;2023-04-06T18:38:17;9.40;;;8.13;;
15183;SDS011;7693;49.266;7.104;2023-04-06T18:40:44;8.40;;;6.90;;
15183;SDS011;7693;49.266;7.104;2023-04-06T18:43:10;7.57;;;6.57;;
15183;SDS011;7693;49.266;7.104;2023-04-06T18:45:36;6.63;;;6.13;;
15183;SDS011;7693;49.266;7.104;2023-04-06T18:48:05;7.57;;;6.87;;
15183;SDS011;7693;49.266;7.104;2023-04-06T18:50:31;7.27;;;6.67;;
15183;SDS011;7693;49.266;7.104;2023-04-06T18:52:56;6.63;;;6.10;;
15183;SDS011;7693;49.266;7.104;2023-04-06T18:55:22;8.67;;;7.80;;
15183;SDS011;7693;49.266;7.104;2023-04-06T18:57:49;7.47;;;6.87;;
15183;SDS011;7693;49.266;7.104;2023-04-06T19:00:15;6.77;;;6.27;;
15183;SDS011;7693;49.266;7.104;2023-04-06T19:02:41;6.80;;;6.40;;
15183;SDS011;7693;49.266;7.104;2023-04-06T19:05:08;7.53;;;7.03;;
15183;SDS011;7693;49.266;7.104;2023-04-06T19:07:35;8.30;;;7.60;;
15183;SDS011;7693;49.266;7.104;2023-04-06T19:10:01;18.13;;;9.93;;
15183;SDS011;7693;49.266;7.104;2023-04-06T19:12:28;19.57;;;11.60;;
15183;SDS011;7693;49.266;7.104;2023-04-06T19:14:53;7.17;;;6.57;;
15183;SDS011;7693;49.266;7.104;2023-04-06T19:17:19;7.50;;;6.80;;
15183;SDS011;7693;49.266;7.104;2023-04-06T19:19:45;7.20;;;6.70;;
15183;SDS011;7693;49.266;7.104;2023-04-06T19:22:11;7.47;;;6.97;;
15183;SDS011;7693;49.266;7.104;2023-04-06T19:24:39;6.87;;;6.37;;
15183;SDS011;7693;49.266;7.104;2023-04-06T19:27:06;7.00;;;6.37;;
15183;SDS011;7693;49.266;7.104;2023-04-06T19:29:33;7.20;;;6.70;;
15183;SDS011;7693;49.266;7.104;2023-04-06T19:31:58;7.47;;;6.87;;
15183;SDS011;7693;49.266;7.104;2023-04-06T19:34:24;7.73;;;7.00;;
15183;SDS011;7693;49.266;7.104;2023-04-06T19:36:50;7.10;;;6.70;;
15183;SDS011;7693;49.266;7.104;2023-04-06T19:39:16;6.50;;;6.10;;
15183;SDS011;7693;49.266;7.104;2023-04-06T19:41:42;6.57;;;6.07;;
15183;SDS011;7693;49.266;7.104;2023-04-06T19:44:07;7.37;;;6.83;;
15183;SDS011;7693;49.266;7.104;2023-04-06T19:46:33;7.20;;;6.70;;
15183;SDS011;7693;49.266;7.104;2023-04-06T19:48:59;7.23;;;6.63;;
15183;SDS011;7693;49.266;7.104;2023-04-06T19:51:29;7.50;;;6.87;;
15183;SDS011;7693;49.266;7.104;2023-04-06T19:53:56;7.87;;;7.17;;
15183;SDS011;7693;49.266;7.104;2023-04-06T19:56:22;7.87;;;7.13;;
15183;SDS011;7693;49.266;7.104;2023-04-06T19:58:48;6.83;;;6.33;;
15183;SDS011;7693;49.266;7.104;2023-04-06T20:01:13;7.53;;;6.83;;
15183;SDS011;7693;49.266;7.104;2023-04-06T20:03:39;6.00;;;5.60;;
15183;SDS011;7693;49.266;7.104;2023-04-06T20:06:05;6.67;;;6.23;;
15183;SDS011;7693;49.266;7.104;2023-04-06T20:08:30;6.50;;;6.07;;
15183;SDS011;7693;49.266;7.104;2023-04-06T20:11:00;6.50;;;6.00;;
15183;SDS011;7693;49.266;7.104;2023-04-06T20:13:26;6.60;;;6.10;;
15183;SDS011;7693;49.266;7.104;2023-04-06T20:15:51;7.30;;;6.10;;
15183;SDS011;7693;49.266;7.104;2023-04-06T20:18:17;8.63;;;7.93;;
15183;SDS011;7693;49.266;7.104;2023-04-06T20:20:43;5.97;;;5.57;;
15183;SDS011;7693;49.266;7.104;2023-04-06T20:23:08;9.73;;;8.77;;
15183;SDS011;7693;49.266;7.104;2023-04-06T20:25:36;5.93;;;5.63;;
15183;SDS011;7693;49.266;7.104;2023-04-06T20:28:02;6.10;;;5.70;;
15183;SDS011;7693;49.266;7.104;2023-04-06T20:30:28;6.27;;;5.87;;
15183;SDS011;7693;49.266;7.104;2023-04-06T20:32:54;6.53;;;6.07;;
15183;SDS011;7693;49.266;7.104;2023-04-06T20:35:19;6.03;;;5.63;;
15183;SDS011;7693;49.266;7.104;2023-04-06T20:37:45;7.80;;;6.10;;
15183;SDS011;7693;49.266;7.104;2023-04-06T20:40:11;6.60;;;6.10;;
15183;SDS011;7693;49.266;7.104;2023-04-06T20:42:37;6.13;;;5.83;;
15183;SDS011;7693;49.266;7.104;2023-04-06T20:45:03;6.27;;;5.80;;
15183;SDS011;7693;49.266;7.104;2023-04-06T20:47:29;6.97;;;6.40;;
15183;SDS011;7693;49.266;7.104;2023-04-06T20:49:55;6.60;;;6.10;;
15183;SDS011;7693;49.266;7.104;2023-04-06T20:52:21;6.63;;;6.13;;
15183;SDS011;7693;49.266;7.104;2023-04-06T20:54:47;6.03;;;5.73;;
15183;SDS011;7693;49.266;7.104;2023-04-06T20:57:14;7.10;;;6.40;;
15183;SDS011;7693;49.266;7.104;2023-04-06T20:59:40;5.93;;;5.63;;
15183;SDS011;7693;49.266;7.104;2023-04-06T21:02:06;8.50;;;6.87;;
15183;SDS011;7693;49.266;7.104;2023-04-06T21:04:34;7.00;;;6.10;;
15183;SDS011;7693;49.266;7.104;2023-04-06T21:07:04;6.20;;;5.80;;
15183;SDS011;7693;49.266;7.104;2023-04-06T21:09:33;7.20;;;6.47;;
15183;SDS011;7693;49.266;7.104;2023-04-06T21:12:00;7.13;;;6.57;;
15183;SDS011;7693;49.266;7.104;2023-04-06T21:14:26;6.50;;;5.97;;
15183;SDS011;7693;49.266;7.104;2023-04-06T21:16:52;6.87;;;6.27;;
15183;SDS011;7693;49.266;7.104;2023-04-06T21:19:19;17.57;;;13.97;;
15183;SDS011;7693;49.266;7.104;2023-04-06T21:21:48;7.40;;;6.80;;
15183;SDS011;7693;49.266;7.104;2023-04-06T21:24:14;6.23;;;5.80;;
15183;SDS011;7693;49.266;7.104;2023-04-06T21:26:40;6.70;;;6.30;;